Time;durP1;ratioP1;P1;durP2;ratioP2;P2;SDS_P1;SDS_P2;PMS_P1;PMS_P2;Temp;Humidity;BMP_temperature;BMP_pressure;BME280_temperature;BME280_humidity;BME280_pressure;Samples;Min_cycle;Max_cycle;Signal;HPM_P1;HPM_P2
2023/08/07 00:00:09;;;;;;;1.00;0.28;;;;;;;16.24;79.62;98668.38;5090937;28;20299;-67
2023/08/07 00:02:37;;;;;;;1.77;0.40;;;;;;;16.26;79.78;98671.72;5091657;28;20212;-66
2023/08/07 00:05:06;;;;;;;1.75;0.60;;;;;;;16.27;79.77;98682.94;5090703;28;20192;-66
2023/08/07 00:07:34;;;;;;;0.20;0.20;;;;;;;16.21;79.14;98689.34;5074896;28;20206;-67
2023/08/07 00:10:03;;;;;;;1.55;0.35;;;;;;;16.19;79.98;98691.19;5086238;28;21006;-68
2023/08/07 00:12:32;;;;;;;0.30;0.30;;;;;;;16.19;80.07;98696.38;5079329;28;20215;-66
2023/08/07 00:15:01;;;;;;;0.30;0.30;;;;;;;16.22;80.41;98696.19;5088382;28;20257;-65
2023/08/07 00:17:29;;;;;;;1.45;0.30;;;;;;;16.21;80.48;98688.50;5090855;28;20200;-67
2023/08/07 00:19:57;;;;;;;0.22;0.22;;;;;;;16.09;80.39;98697.81;5089584;28;20323;-66
2023/08/07 00:22:26;;;;;;;0.20;0.20;;;;;;;15.97;80.93;98695.91;5087504;28;20698;-66
2023/08/07 00:24:54;;;;;;;0.28;0.28;;;;;;;15.97;81.53;98695.91;5088552;28;20208;-70
2023/08/07 00:27:22;;;;;;;1.23;0.30;;;;;;;15.95;81.79;98677.81;5088109;28;20323;-65
2023/08/07 00:29:51;;;;;;;0.17;0.17;;;;;;;15.91;81.03;98692.72;5093066;28;20343;-67
2023/08/07 00:32:19;;;;;;;0.38;0.20;;;;;;;15.86;81.49;98694.72;5087590;28;20600;-67
2023/08/07 00:34:47;;;;;;;0.38;0.38;;;;;;;15.82;81.73;98693.22;5078862;28;20204;-65
2023/08/07 00:37:15;;;;;;;0.20;0.20;;;;;;;15.80;81.85;98689.88;5087918;28;20213;-67
2023/08/07 00:39:43;;;;;;;0.63;0.30;;;;;;;15.80;81.92;98683.84;5077648;28;20668;-66
2023/08/07 00:42:11;;;;;;;0.40;0.40;;;;;;;15.74;81.37;98698.00;5090867;28;20601;-67
2023/08/07 00:44:39;;;;;;;0.50;0.50;;;;;;;15.72;81.30;98673.84;5092299;28;20204;-67
2023/08/07 00:47:08;;;;;;;0.82;0.82;;;;;;;15.74;81.22;98674.63;5089712;28;20196;-66
2023/08/07 00:49:37;;;;;;;0.50;0.50;;;;;;;15.70;81.08;98673.94;5088764;28;20196;-66
2023/08/07 00:52:06;;;;;;;0.55;0.52;;;;;;;15.70;80.79;98657.53;5084872;28;20714;-65
2023/08/07 00:54:34;;;;;;;0.63;0.45;;;;;;;15.73;80.47;98662.56;5086275;28;20659;-66
2023/08/07 00:57:11;;;;;;;1.27;0.40;;;;;;;15.72;80.53;98663.47;5088562;28;20364;-68
2023/08/07 00:59:40;;;;;;;0.63;0.57;;;;;;;15.74;80.50;98663.41;5085977;28;20585;-67
2023/08/07 01:02:10;;;;;;;1.08;0.45;;;;;;;15.77;80.80;98664.06;5089454;28;20197;-66
2023/08/07 01:04:39;;;;;;;0.70;0.55;;;;;;;15.80;80.25;98658.72;5088727;28;20211;-66
2023/08/07 01:07:07;;;;;;;2.35;0.40;;;;;;;15.79;80.09;98661.38;5088935;28;20204;-68
2023/08/07 01:09:35;;;;;;;2.90;0.70;;;;;;;15.83;80.01;98662.88;5085644;28;20204;-65
2023/08/07 01:12:11;;;;;;;1.08;0.60;;;;;;;15.86;80.38;98654.91;5089511;28;20242;-67
2023/08/07 01:14:50;;;;;;;0.80;0.80;;;;;;;15.89;80.74;98655.59;5092648;28;20655;-67
2023/08/07 01:17:23;;;;;;;0.70;0.70;;;;;;;15.90;81.20;98657.25;5083700;28;20235;-65
2023/08/07 01:19:52;;;;;;;0.80;0.80;;;;;;;15.86;80.77;98653.16;5093053;28;20247;-64
2023/08/07 01:22:21;;;;;;;0.90;0.90;;;;;;;15.78;80.86;98652.75;5094197;28;20209;-66
2023/08/07 01:24:50;;;;;;;0.60;0.60;;;;;;;15.80;81.02;98653.53;5093268;28;20193;-66
2023/08/07 01:27:38;;;;;;;0.75;0.75;;;;;;;15.80;80.86;98657.88;5093388;28;20224;-67
2023/08/07 01:30:22;;;;;;;0.80;0.80;;;;;;;15.79;81.06;98674.38;5091244;28;20200;-67
2023/08/07 01:32:59;;;;;;;0.93;0.93;;;;;;;15.75;81.47;98671.09;5082264;28;20200;-65
2023/08/07 01:35:30;;;;;;;1.23;1.13;;;;;;;15.69;81.08;98659.31;5086948;28;20207;-68
2023/08/07 01:38:02;;;;;;;1.75;0.80;;;;;;;15.68;81.43;98670.63;5091448;28;20534;-67
2023/08/07 01:40:31;;;;;;;1.00;1.00;;;;;;;15.70;82.09;98680.91;5095813;28;20573;-65
2023/08/07 01:42:59;;;;;;;1.75;0.90;;;;;;;15.68;81.10;98670.63;5094590;28;20250;-64
2023/08/07 01:45:29;;;;;;;2.63;1.10;;;;;;;15.66;81.51;98688.03;5093889;28;20671;-65
2023/08/07 01:47:56;;;;;;;1.17;1.13;;;;;;;15.63;81.28;98688.16;5086856;28;20207;-66
2023/08/07 01:50:25;;;;;;;1.30;1.30;;;;;;;15.63;82.03;98690.75;5089351;28;20203;-64
2023/08/07 01:52:53;;;;;;;1.30;1.02;;;;;;;15.63;81.78;98687.31;5076875;28;20212;-65
2023/08/07 01:55:24;;;;;;;0.80;0.80;;;;;;;15.66;81.57;98692.38;5093365;28;20196;-65
2023/08/07 01:57:52;;;;;;;1.10;1.00;;;;;;;15.58;81.73;98673.75;5092987;28;20201;-67
2023/08/07 02:00:20;;;;;;;1.15;1.00;;;;;;;15.52;81.99;98655.91;5093227;28;20530;-67
2023/08/07 02:02:48;;;;;;;1.45;1.10;;;;;;;15.50;82.56;98660.31;5093179;28;20208;-65
2023/08/07 02:05:16;;;;;;;1.20;1.10;;;;;;;15.35;82.86;98649.00;5087793;28;20269;-66
2023/08/07 02:07:45;;;;;;;2.50;1.23;;;;;;;15.35;82.35;98641.22;5087034;28;20211;-64
2023/08/07 02:10:13;;;;;;;1.52;1.00;;;;;;;15.32;82.80;98663.00;5091580;28;20200;-67
2023/08/07 02:12:43;;;;;;;1.00;0.90;;;;;;;15.31;82.98;98663.06;5092922;28;20547;-67
2023/08/07 02:15:11;;;;;;;3.50;1.33;;;;;;;15.30;82.76;98651.84;5093592;28;20964;-66
2023/08/07 02:17:41;;;;;;;0.80;0.80;;;;;;;15.35;83.13;98677.56;5093351;28;20631;-65
2023/08/07 02:20:11;;;;;;;0.93;0.93;;;;;;;15.32;82.48;98675.97;5091332;28;20235;-66
2023/08/07 02:22:39;;;;;;;3.95;1.10;;;;;;;15.35;82.82;98683.59;5090919;28;20197;-66
2023/08/07 02:25:07;;;;;;;1.10;1.10;;;;;;;15.36;82.36;98684.44;5090439;28;20532;-65
2023/08/07 02:27:35;;;;;;;1.13;1.10;;;;;;;15.34;82.83;98687.09;5085839;28;20351;-67
2023/08/07 02:30:06;;;;;;;0.93;0.80;;;;;;;15.32;82.57;98703.69;5102020;28;20205;-66
2023/08/07 02:32:35;;;;;;;1.92;1.10;;;;;;;15.30;82.70;98706.34;5089832;28;20205;-64
2023/08/07 02:35:03;;;;;;;1.15;0.80;;;;;;;15.35;82.24;98698.31;5091092;28;20205;-66
2023/08/07 02:37:31;;;;;;;1.60;1.00;;;;;;;15.30;82.18;98702.94;5083544;28;20655;-65
2023/08/07 02:39:59;;;;;;;3.20;0.82;;;;;;;15.19;83.00;98700.88;5092832;28;21700;-65
2023/08/07 02:42:27;;;;;;;1.15;0.93;;;;;;;15.14;82.75;98697.72;5088761;28;20686;-66
2023/08/07 02:44:55;;;;;;;2.03;0.90;;;;;;;15.08;83.16;98701.44;5090997;28;20197;-65
2023/08/07 02:47:24;;;;;;;1.17;1.08;;;;;;;15.14;83.37;98700.31;5092722;28;20693;-67
2023/08/07 02:49:52;;;;;;;0.93;0.90;;;;;;;15.16;83.19;98716.59;5091599;28;20246;-64
2023/08/07 02:52:20;;;;;;;1.60;1.00;;;;;;;15.13;83.41;98714.16;5092996;28;20579;-66
2023/08/07 02:54:48;;;;;;;0.70;0.70;;;;;;;15.04;83.74;98722.44;5094674;28;20553;-67
2023/08/07 02:57:16;;;;;;;0.80;0.80;;;;;;;14.95;83.73;98724.59;5092146;28;20228;-66
2023/08/07 02:59:44;;;;;;;1.13;0.90;;;;;;;14.97;84.34;98709.78;5083354;28;20211;-68
2023/08/07 03:02:12;;;;;;;1.23;0.80;;;;;;;14.97;83.94;98704.59;5090409;28;20208;-66
2023/08/07 03:04:41;;;;;;;1.02;1.00;;;;;;;14.93;83.61;98703.06;5089196;28;20226;-66
2023/08/07 03:07:09;;;;;;;1.20;1.10;;;;;;;14.97;84.28;98702.00;5092047;28;20283;-68
2023/08/07 03:09:38;;;;;;;1.00;0.80;;;;;;;14.95;82.82;98700.41;5086875;28;20201;-69
2023/08/07 03:12:06;;;;;;;2.03;0.90;;;;;;;14.96;83.26;98713.28;5089222;28;20200;-64
2023/08/07 03:14:34;;;;;;;2.00;0.80;;;;;;;15.00;83.12;98710.53;5086852;28;20200;-67
2023/08/07 03:17:02;;;;;;;1.00;0.90;;;;;;;15.05;82.08;98703.34;5088892;28;20230;-65
2023/08/07 03:19:31;;;;;;;0.98;0.70;;;;;;;15.07;82.39;98714.50;5091713;28;20240;-66
2023/08/07 03:22:00;;;;;;;3.00;1.00;;;;;;;15.05;81.46;98711.13;5089009;28;20208;-68
2023/08/07 03:24:28;;;;;;;1.05;0.90;;;;;;;15.07;81.44;98720.53;5091910;28;20208;-66
2023/08/07 03:26:56;;;;;;;1.20;1.10;;;;;;;15.08;81.20;98727.38;5090063;28;20301;-65
2023/08/07 03:29:24;;;;;;;2.08;0.90;;;;;;;15.08;81.16;98732.56;5088980;28;20204;-66
2023/08/07 03:31:52;;;;;;;1.45;1.30;;;;;;;15.07;80.56;98736.09;5087587;28;20619;-66
2023/08/07 03:34:21;;;;;;;1.10;1.00;;;;;;;15.03;80.78;98738.94;5090529;28;20228;-65
2023/08/07 03:36:49;;;;;;;0.90;0.90;;;;;;;15.03;81.33;98738.94;5083455;28;20215;-66
2023/08/07 03:39:18;;;;;;;1.70;1.20;;;;;;;15.07;80.48;98746.47;5089141;28;20655;-65
2023/08/07 03:41:46;;;;;;;1.60;0.90;;;;;;;14.94;80.65;98756.59;5088730;28;20240;-66
2023/08/07 03:44:14;;;;;;;1.42;1.33;;;;;;;14.89;80.77;98737.84;5089695;28;20558;-66
2023/08/07 03:46:42;;;;;;;1.98;1.33;;;;;;;14.95;80.73;98747.94;5091104;28;20571;-65
2023/08/07 03:49:10;;;;;;;1.00;1.00;;;;;;;14.98;80.05;98752.09;5091223;28;20558;-67
2023/08/07 03:51:38;;;;;;;2.50;1.35;;;;;;;14.97;81.12;98758.22;5089431;28;20211;-66
2023/08/07 03:54:06;;;;;;;1.30;1.20;;;;;;;15.00;81.08;98765.00;5090817;28;20309;-66
2023/08/07 03:56:37;;;;;;;1.35;1.25;;;;;;;15.04;81.27;98761.34;5094449;28;20208;-69
2023/08/07 03:59:05;;;;;;;1.30;1.20;;;;;;;15.04;81.05;98753.56;5084689;28;20544;-66
2023/08/07 04:01:33;;;;;;;1.60;1.30;;;;;;;15.06;80.88;98754.31;5086686;28;20305;-67
2023/08/07 04:04:02;;;;;;;1.13;1.10;;;;;;;15.08;80.30;98753.31;5088475;28;20683;-67
2023/08/07 04:06:30;;;;;;;1.30;1.20;;;;;;;15.12;81.03;98744.47;5090637;28;20197;-66
2023/08/07 04:08:58;;;;;;;2.03;1.40;;;;;;;15.13;80.33;98737.50;5089697;28;20205;-66
2023/08/07 04:11:26;;;;;;;2.35;1.27;;;;;;;15.12;81.03;98721.13;5084224;28;20198;-67
2023/08/07 04:13:55;;;;;;;1.52;1.40;;;;;;;15.12;80.78;98734.09;5087221;28;20262;-66
2023/08/07 04:16:24;;;;;;;2.95;1.50;;;;;;;15.07;80.77;98736.09;5090900;28;20640;-65
2023/08/07 04:18:52;;;;;;;2.05;1.45;;;;;;;15.09;80.95;98738.59;5091267;28;20250;-65
2023/08/07 04:21:20;;;;;;;1.42;1.33;;;;;;;15.11;80.35;98736.78;5091071;28;20221;-67
2023/08/07 04:23:48;;;;;;;1.55;1.30;;;;;;;15.10;80.50;98738.53;5082991;28;20671;-67
2023/08/07 04:26:16;;;;;;;1.13;1.10;;;;;;;15.13;80.18;98746.16;5081901;28;20239;-64
2023/08/07 04:28:44;;;;;;;2.55;1.23;;;;;;;15.11;78.90;98753.19;5090104;28;20232;-66
2023/08/07 04:31:14;;;;;;;1.75;1.27;;;;;;;15.09;79.25;98754.16;5092881;28;20227;-65
2023/08/07 04:33:42;;;;;;;1.23;0.90;;;;;;;15.10;79.36;98761.06;5089236;28;20673;-67
2023/08/07 04:36:10;;;;;;;1.45;1.02;;;;;;;15.10;78.58;98759.28;5085654;28;20201;-66
2023/08/07 04:38:38;;;;;;;1.35;1.20;;;;;;;15.10;78.73;98766.25;5088445;28;20204;-65
2023/08/07 04:41:06;;;;;;;1.10;1.10;;;;;;;15.17;78.96;98783.16;5083605;28;20694;-67
2023/08/07 04:43:34;;;;;;;0.80;0.80;;;;;;;15.21;77.78;98779.50;5088345;28;20212;-67
2023/08/07 04:46:02;;;;;;;1.73;0.80;;;;;;;15.21;77.17;98784.69;5087966;28;20205;-69
2023/08/07 04:48:32;;;;;;;1.80;0.70;;;;;;;15.27;77.05;98779.16;5095932;28;20537;-65
2023/08/07 04:51:00;;;;;;;1.40;1.10;;;;;;;15.30;76.77;98770.41;5090639;28;20200;-65
2023/08/07 04:53:28;;;;;;;1.73;0.88;;;;;;;15.37;76.33;98774.34;5090874;28;20602;-64
2023/08/07 04:55:56;;;;;;;0.70;0.70;;;;;;;15.40;75.35;98767.25;5088270;28;20639;-67
2023/08/07 04:58:24;;;;;;;2.60;0.70;;;;;;;15.38;75.26;98771.66;5081195;28;20291;-65
2023/08/07 05:00:56;;;;;;;1.27;0.90;;;;;;;15.40;75.21;98779.41;5081754;28;20775;-66
2023/08/07 05:03:24;;;;;;;0.77;0.77;;;;;;;15.41;75.03;98781.06;5089465;28;20646;-65
2023/08/07 05:05:59;;;;;;;1.13;0.80;;;;;;;15.40;74.92;98788.03;5090482;28;20204;-66
2023/08/07 05:08:27;;;;;;;0.73;0.73;;;;;;;15.43;74.77;98784.44;5083516;28;20200;-65
2023/08/07 05:10:55;;;;;;;1.23;1.08;;;;;;;15.48;75.00;98790.22;5081513;28;20652;-65
2023/08/07 05:13:23;;;;;;;0.80;0.70;;;;;;;15.50;74.76;98791.00;5083121;28;20197;-66
2023/08/07 05:15:51;;;;;;;1.40;0.70;;;;;;;15.52;74.93;98793.50;5089938;28;20266;-65
2023/08/07 05:18:19;;;;;;;3.13;1.10;;;;;;;15.51;74.60;98790.06;5091868;28;20292;-66
2023/08/07 05:20:47;;;;;;;2.30;0.90;;;;;;;15.48;75.25;98794.56;5083808;28;20670;-67
2023/08/07 05:23:17;;;;;;;2.25;1.10;;;;;;;15.48;76.32;98797.16;5089934;28;20209;-66
2023/08/07 05:25:46;;;;;;;1.17;1.10;;;;;;;15.44;76.63;98806.88;5088866;28;20224;-67
2023/08/07 05:28:16;;;;;;;1.80;1.15;;;;;;;15.31;77.80;98801.44;5086745;28;20197;-65
2023/08/07 05:30:44;;;;;;;1.38;1.17;;;;;;;15.28;78.02;98795.56;5088840;28;20655;-65
2023/08/07 05:33:14;;;;;;;2.20;1.13;;;;;;;15.25;78.79;98793.16;5079955;28;20267;-68
2023/08/07 05:35:42;;;;;;;1.00;0.90;;;;;;;15.24;78.58;98789.69;5088107;28;20201;-65
2023/08/07 05:38:10;;;;;;;1.30;1.20;;;;;;;15.21;78.85;98790.72;5089885;28;20201;-69
2023/08/07 05:40:40;;;;;;;1.65;1.30;;;;;;;15.26;79.08;98797.44;5090119;28;20746;-67
2023/08/07 05:43:09;;;;;;;1.85;1.20;;;;;;;15.22;78.44;98801.94;5082508;28;20311;-65
2023/08/07 05:45:37;;;;;;;2.28;1.00;;;;;;;15.23;78.91;98793.22;5076188;28;20239;-63
2023/08/07 05:48:06;;;;;;;2.97;1.38;;;;;;;15.27;79.17;98797.34;5089261;28;20200;-63
2023/08/07 05:50:34;;;;;;;1.90;1.55;;;;;;;15.35;78.92;98791.75;5089928;28;20249;-64
2023/08/07 05:53:02;;;;;;;2.10;1.20;;;;;;;15.39;78.96;98794.13;5083271;28;20742;-64
2023/08/07 05:55:30;;;;;;;1.33;1.23;;;;;;;15.44;78.77;98799.09;5087741;28;20275;-64
2023/08/07 05:58:00;;;;;;;1.50;1.40;;;;;;;15.43;79.32;98795.66;5092139;28;20727;-64
2023/08/07 06:00:28;;;;;;;1.65;1.38;;;;;;;15.42;79.74;98804.34;5088046;28;20220;-60
2023/08/07 06:02:56;;;;;;;3.55;1.58;;;;;;;15.36;80.13;98798.66;5083601;28;20212;-66
2023/08/07 06:05:25;;;;;;;1.30;1.20;;;;;;;15.32;80.58;98808.34;5084106;28;20250;-64
2023/08/07 06:07:53;;;;;;;4.03;1.45;;;;;;;15.27;80.59;98807.72;5090329;28;20220;-66
2023/08/07 06:10:21;;;;;;;2.45;1.52;;;;;;;15.28;81.00;98801.63;5091564;28;20586;-66
2023/08/07 06:12:49;;;;;;;1.63;1.52;;;;;;;15.23;81.34;98808.78;5090130;28;20204;-65
2023/08/07 06:15:19;;;;;;;1.88;1.77;;;;;;;15.14;81.55;98810.09;5092103;28;20201;-65
2023/08/07 06:17:46;;;;;;;3.03;1.90;;;;;;;15.15;81.54;98816.97;5093688;28;20564;-67
2023/08/07 06:20:15;;;;;;;1.43;1.33;;;;;;;15.17;81.17;98809.09;5088615;28;20307;-65
2023/08/07 06:22:43;;;;;;;2.78;1.85;;;;;;;15.08;80.43;98804.38;5088092;28;20273;-62
2023/08/07 06:25:11;;;;;;;2.57;1.70;;;;;;;15.09;80.62;98798.25;5085179;28;20734;-62
2023/08/07 06:27:39;;;;;;;3.08;1.23;;;;;;;15.15;80.55;98800.56;5087624;28;20196;-65
2023/08/07 06:30:08;;;;;;;1.42;1.33;;;;;;;15.25;80.18;98806.13;5088915;28;20200;-64
2023/08/07 06:32:38;;;;;;;1.98;1.15;;;;;;;15.09;77.38;98826.81;5092476;28;20275;-64
2023/08/07 06:35:06;;;;;;;4.97;1.50;;;;;;;15.03;78.40;98811.56;5092810;28;20752;-68
2023/08/07 06:37:34;;;;;;;3.55;1.50;;;;;;;15.01;78.58;98819.41;5093281;28;20292;-66
2023/08/07 06:40:03;;;;;;;1.48;1.30;;;;;;;15.00;78.23;98815.13;5093062;28;20564;-65
2023/08/07 06:42:31;;;;;;;1.20;1.10;;;;;;;15.10;79.33;98816.38;5090166;28;20979;-66
2023/08/07 06:44:59;;;;;;;1.90;1.03;;;;;;;15.24;78.42;98820.84;5088288;28;20674;-66
2023/08/07 06:47:27;;;;;;;2.08;1.40;;;;;;;15.37;77.82;98826.28;5091504;28;20295;-66
2023/08/07 06:49:56;;;;;;;2.67;1.10;;;;;;;15.43;76.72;98824.22;5092105;28;20224;-66
2023/08/07 06:52:24;;;;;;;2.27;1.20;;;;;;;15.38;76.28;98838.31;5091353;28;20196;-65
2023/08/07 06:54:53;;;;;;;1.60;1.30;;;;;;;15.33;76.04;98835.97;5090528;28;20201;-66
2023/08/07 06:57:21;;;;;;;2.15;1.15;;;;;;;15.43;76.35;98844.97;5090053;28;20205;-67
2023/08/07 06:59:49;;;;;;;1.48;1.20;;;;;;;15.67;75.93;98839.47;5085953;28;20209;-65
2023/08/07 07:02:17;;;;;;;1.20;1.10;;;;;;;16.01;75.02;98853.28;5091517;28;20201;-66
2023/08/07 07:04:45;;;;;;;4.63;1.15;;;;;;;16.21;73.24;98850.47;5084577;28;20281;-66
2023/08/07 07:07:14;;;;;;;1.30;1.20;;;;;;;16.28;71.84;98846.63;5091797;28;20209;-68
2023/08/07 07:09:42;;;;;;;1.48;1.35;;;;;;;16.34;72.25;98846.28;5092298;28;20808;-65
2023/08/07 07:12:10;;;;;;;1.42;1.33;;;;;;;16.36;72.16;98831.44;5079743;28;20566;-68
2023/08/07 07:14:38;;;;;;;1.58;1.10;;;;;;;16.52;71.59;98833.19;5088628;28;20232;-68
2023/08/07 07:17:06;;;;;;;1.50;1.10;;;;;;;16.77;71.83;98828.34;5088053;28;20201;-69
2023/08/07 07:19:34;;;;;;;1.50;1.20;;;;;;;16.95;70.30;98825.63;5087937;28;20236;-66
2023/08/07 07:22:02;;;;;;;1.75;1.60;;;;;;;16.97;69.82;98829.78;5088576;28;20651;-65
2023/08/07 07:24:31;;;;;;;0.90;0.90;;;;;;;16.79;69.17;98834.31;5088091;28;20220;-66
2023/08/07 07:26:59;;;;;;;3.22;1.30;;;;;;;16.65;69.31;98835.03;5091335;28;20211;-64
2023/08/07 07:29:27;;;;;;;1.50;1.20;;;;;;;16.50;70.48;98848.91;5086268;28;20205;-67
2023/08/07 07:31:55;;;;;;;1.45;1.30;;;;;;;16.35;70.92;98863.56;5079909;28;20616;-66
2023/08/07 07:34:24;;;;;;;2.08;1.30;;;;;;;16.21;70.11;98866.06;5083778;28;20257;-68
2023/08/07 07:36:53;;;;;;;1.25;1.15;;;;;;;16.17;70.75;98870.59;5092077;28;20201;-66
2023/08/07 07:39:21;;;;;;;1.17;1.08;;;;;;;16.12;70.55;98871.75;5092212;28;20254;-67
2023/08/07 07:41:51;;;;;;;1.33;1.23;;;;;;;16.09;69.91;98856.31;5090462;28;20659;-65
2023/08/07 07:44:19;;;;;;;2.47;1.13;;;;;;;16.10;69.62;98868.41;5086500;28;20223;-70
2023/08/07 07:46:47;;;;;;;2.17;1.20;;;;;;;16.04;70.04;98873.91;5089313;28;20290;-67
2023/08/07 07:49:15;;;;;;;1.10;1.00;;;;;;;15.97;68.85;98849.19;5089993;28;20212;-70
2023/08/07 07:51:44;;;;;;;0.90;0.90;;;;;;;15.91;69.38;98861.56;5091297;28;20219;-68
2023/08/07 07:54:12;;;;;;;2.15;1.30;;;;;;;15.83;70.24;98863.75;5090294;28;20679;-67
2023/08/07 07:56:43;;;;;;;1.05;1.05;;;;;;;15.74;70.00;98859.00;5091237;28;20208;-69
2023/08/07 07:59:13;;;;;;;1.60;1.17;;;;;;;15.73;70.48;98859.94;5089521;28;20577;-71
2023/08/07 08:01:41;;;;;;;2.25;0.93;;;;;;;15.77;70.00;98874.44;5090213;28;20636;-67
2023/08/07 08:04:10;;;;;;;3.42;1.40;;;;;;;15.85;69.64;98892.22;5088149;28;20228;-65
2023/08/07 08:06:38;;;;;;;2.80;1.02;;;;;;;15.96;68.27;98883.88;5080087;28;20274;-68
2023/08/07 08:09:09;;;;;;;1.52;1.20;;;;;;;15.97;68.67;98873.38;5090990;28;20197;-67
2023/08/07 08:11:37;;;;;;;2.63;1.50;;;;;;;16.00;68.63;98880.19;5090161;28;20232;-68
2023/08/07 08:14:05;;;;;;;2.08;1.25;;;;;;;16.21;68.81;98876.47;5088889;28;20188;-69
2023/08/07 08:16:35;;;;;;;2.08;1.23;;;;;;;16.46;67.61;98864.72;5087568;28;20545;-69
2023/08/07 08:19:03;;;;;;;1.83;1.20;;;;;;;16.51;66.50;98878.34;5087881;28;20240;-69
2023/08/07 08:21:32;;;;;;;0.93;0.90;;;;;;;16.43;66.65;98877.00;5078613;28;20996;-68
2023/08/07 08:24:00;;;;;;;1.45;1.10;;;;;;;16.39;66.31;98891.06;5086410;28;20579;-70
2023/08/07 08:26:28;;;;;;;3.45;1.17;;;;;;;16.24;67.13;98881.50;5090444;28;20254;-70
2023/08/07 08:28:56;;;;;;;2.08;1.15;;;;;;;16.26;67.40;98890.03;5089600;28;20607;-72
2023/08/07 08:31:24;;;;;;;1.58;1.25;;;;;;;16.14;67.65;98885.50;5089936;28;20291;-70
2023/08/07 08:33:53;;;;;;;1.30;1.20;;;;;;;16.09;68.06;98892.69;5091075;28;20201;-71
2023/08/07 08:36:21;;;;;;;1.33;1.23;;;;;;;16.13;67.94;98902.03;5091128;28;20372;-67
2023/08/07 08:38:51;;;;;;;1.30;1.20;;;;;;;16.16;68.25;98901.84;5091601;28;20216;-73
2023/08/07 08:41:21;;;;;;;1.60;1.27;;;;;;;16.24;68.06;98917.91;5091783;28;20207;-69
2023/08/07 08:43:52;;;;;;;2.85;1.17;;;;;;;16.27;68.28;98902.09;5091773;28;20289;-74
2023/08/07 08:46:21;;;;;;;3.13;1.30;;;;;;;16.32;67.73;98907.91;5091748;28;20278;-70
2023/08/07 08:48:57;;;;;;;1.30;1.20;;;;;;;16.29;68.47;98892.50;5089981;28;20211;-70
2023/08/07 08:51:26;;;;;;;1.30;1.17;;;;;;;16.39;68.53;98896.28;5091638;28;20218;-70
2023/08/07 08:53:56;;;;;;;2.00;1.20;;;;;;;16.47;68.08;98897.63;5091481;28;20655;-70
2023/08/07 08:56:25;;;;;;;1.20;1.10;;;;;;;16.60;66.76;98898.63;5089318;28;20200;-69
2023/08/07 08:58:53;;;;;;;1.35;0.88;;;;;;;16.66;66.88;98888.72;5089122;28;20212;-71
2023/08/07 09:01:22;;;;;;;2.50;1.35;;;;;;;16.75;66.62;98890.00;5091209;28;20303;-72
2023/08/07 09:03:56;;;;;;;2.65;1.30;;;;;;;16.82;66.47;98904.34;5091305;28;20220;-71
2023/08/07 09:06:28;;;;;;;1.95;1.30;;;;;;;16.93;65.25;98908.13;5089272;28;20842;-71
2023/08/07 09:08:58;;;;;;;3.70;1.00;;;;;;;17.11;65.08;98910.53;5091413;28;20201;-69
2023/08/07 09:11:27;;;;;;;1.05;0.90;;;;;;;17.52;62.69;98911.69;5091506;28;20210;-67
2023/08/07 09:13:57;;;;;;;1.00;0.90;;;;;;;17.71;61.28;98904.50;5089209;28;20253;-69
2023/08/07 09:16:28;;;;;;;0.80;0.70;;;;;;;17.96;60.30;98918.69;5085144;28;20292;-69
2023/08/07 09:18:57;;;;;;;1.33;1.05;;;;;;;18.22;59.31;98920.53;5090224;28;20230;-70
2023/08/07 09:21:26;;;;;;;1.08;0.70;;;;;;;18.65;56.28;98933.56;5087746;28;20215;-69
2023/08/07 09:23:55;;;;;;;2.15;0.80;;;;;;;19.16;54.36;98926.00;5088234;28;20240;-68
2023/08/07 09:26:24;;;;;;;1.15;0.80;;;;;;;20.10;51.58;98925.84;5089774;28;20598;-70
2023/08/07 09:28:53;;;;;;;0.60;0.60;;;;;;;20.41;50.72;98936.81;5090422;28;20228;-72
2023/08/07 09:31:22;;;;;;;1.00;0.73;;;;;;;20.52;49.98;98936.94;5091535;28;20209;-69
2023/08/07 09:33:50;;;;;;;1.38;0.70;;;;;;;20.75;48.79;98948.38;5093518;28;20270;-72
2023/08/07 09:36:19;;;;;;;2.30;0.90;;;;;;;20.47;49.31;98952.06;5075256;28;20223;-68
2023/08/07 09:38:51;;;;;;;1.05;0.95;;;;;;;20.25;50.79;98958.81;5074898;28;20668;-71
2023/08/07 09:41:20;;;;;;;2.47;0.90;;;;;;;20.25;50.69;98971.03;5094894;28;20578;-70
2023/08/07 09:43:48;;;;;;;0.88;0.88;;;;;;;20.09;51.22;98975.66;5087081;28;20651;-70
2023/08/07 09:46:18;;;;;;;1.20;0.85;;;;;;;19.77;51.33;98981.25;5095146;28;20281;-70
2023/08/07 09:48:47;;;;;;;2.95;0.93;;;;;;;19.37;52.77;98991.69;5094779;28;20207;-69
2023/08/07 09:51:15;;;;;;;6.07;1.08;;;;;;;19.02;52.91;98979.09;5094170;28;20254;-70
2023/08/07 09:53:44;;;;;;;3.47;0.70;;;;;;;18.78;54.61;98985.88;5094450;28;20250;-69
2023/08/07 09:56:13;;;;;;;2.00;0.60;;;;;;;18.72;54.48;98992.28;5092513;28;20207;-70
2023/08/07 09:58:48;;;;;;;4.03;0.75;;;;;;;18.75;54.81;98992.09;5094400;28;20196;-69
2023/08/07 10:01:19;;;;;;;1.23;0.82;;;;;;;18.79;55.03;98990.16;5093563;28;20203;-71
2023/08/07 10:03:47;;;;;;;1.52;0.80;;;;;;;18.97;54.22;98996.84;5094372;28;20295;-69
2023/08/07 10:06:16;;;;;;;2.33;0.60;;;;;;;19.03;53.90;98985.97;5094085;28;20614;-71
2023/08/07 10:08:46;;;;;;;0.88;0.80;;;;;;;19.50;52.70;98982.09;5087190;28;20278;-69
2023/08/07 10:11:15;;;;;;;2.10;0.68;;;;;;;19.73;51.07;98985.84;5087766;28;20228;-69
2023/08/07 10:13:46;;;;;;;1.63;0.80;;;;;;;20.13;50.36;98977.94;5090211;28;20200;-71
2023/08/07 10:16:14;;;;;;;2.03;0.70;;;;;;;21.04;49.61;98985.59;5094473;28;20188;-68
2023/08/07 10:18:43;;;;;;;1.80;0.70;;;;;;;21.50;47.71;98979.66;5094814;28;20759;-71
2023/08/07 10:21:11;;;;;;;1.60;0.60;;;;;;;21.32;46.50;98973.09;5094102;28;20212;-69
2023/08/07 10:23:40;;;;;;;0.70;0.60;;;;;;;20.87;47.47;98978.09;5092536;28;20215;-69
2023/08/07 10:26:12;;;;;;;2.13;0.70;;;;;;;20.19;48.87;98988.00;5093575;28;20213;-68
2023/08/07 10:28:42;;;;;;;1.08;0.88;;;;;;;19.67;50.12;98981.03;5090173;28;20296;-71
2023/08/07 10:31:11;;;;;;;3.22;0.90;;;;;;;19.49;50.88;98988.28;5086162;28;20220;-71
2023/08/07 10:33:41;;;;;;;0.57;0.50;;;;;;;19.73;51.19;98983.22;5083064;28;20209;-70
2023/08/07 10:36:11;;;;;;;0.95;0.75;;;;;;;19.86;50.28;98971.97;5084671;28;20284;-70
2023/08/07 10:38:39;;;;;;;0.93;0.70;;;;;;;19.83;50.70;98993.09;5074226;28;20705;-69
2023/08/07 10:41:09;;;;;;;2.58;0.73;;;;;;;19.81;50.77;98974.91;5083222;28;20620;-69
2023/08/07 10:43:42;;;;;;;1.50;1.17;;;;;;;19.98;49.79;98989.44;5093138;28;20208;-69
2023/08/07 10:46:12;;;;;;;1.23;0.70;;;;;;;20.12;50.55;98984.13;5093092;28;20577;-71
2023/08/07 10:48:43;;;;;;;1.63;0.65;;;;;;;20.17;50.63;98984.63;5093437;28;20196;-69
2023/08/07 10:51:14;;;;;;;0.80;0.80;;;;;;;20.38;50.03;98994.59;5090403;28;20192;-69
2023/08/07 10:53:45;;;;;;;0.93;0.80;;;;;;;20.25;49.67;98992.81;5093604;28;20214;-71
2023/08/07 10:56:18;;;;;;;0.80;0.80;;;;;;;19.94;49.75;98988.81;5088927;28;20288;-71
2023/08/07 10:58:52;;;;;;;1.13;0.60;;;;;;;19.77;51.05;98997.78;5093359;28;20200;-69
2023/08/07 11:01:28;;;;;;;0.60;0.60;;;;;;;19.97;50.36;98977.31;5093238;28;20663;-70
2023/08/07 11:03:57;;;;;;;0.70;0.70;;;;;;;20.77;49.03;98995.38;5093280;28;20200;-72
2023/08/07 11:06:27;;;;;;;0.80;0.80;;;;;;;22.08;45.43;98991.03;5093654;28;20322;-68
2023/08/07 11:08:55;;;;;;;1.40;0.88;;;;;;;22.11;44.67;98997.84;5090951;28;20205;-71
2023/08/07 11:11:24;;;;;;;1.70;1.05;;;;;;;21.53;44.69;98999.56;5102424;28;20200;-69
2023/08/07 11:13:53;;;;;;;1.42;1.08;;;;;;;20.91;46.14;99003.13;5090705;28;20235;-70
2023/08/07 11:16:22;;;;;;;3.22;0.80;;;;;;;20.60;47.42;99005.28;5092694;28;20284;-69
2023/08/07 11:18:50;;;;;;;0.90;0.90;;;;;;;20.36;48.32;99015.63;5093155;28;20232;-70
2023/08/07 11:21:19;;;;;;;0.88;0.68;;;;;;;20.01;47.80;99007.53;5093563;28;20204;-69
2023/08/07 11:23:48;;;;;;;2.05;0.70;;;;;;;19.74;48.70;99020.69;5092428;28;20201;-70
2023/08/07 11:26:17;;;;;;;1.30;0.70;;;;;;;19.60;49.57;99018.09;5091699;28;20224;-69
2023/08/07 11:28:45;;;;;;;2.08;0.60;;;;;;;19.74;49.78;99023.28;5079369;28;20205;-69
2023/08/07 11:31:14;;;;;;;0.70;0.70;;;;;;;20.36;48.05;99013.03;5086266;28;20252;-70
2023/08/07 11:33:43;;;;;;;1.55;0.70;;;;;;;21.32;46.00;99009.78;5088726;28;20211;-69
2023/08/07 11:36:12;;;;;;;0.60;0.60;;;;;;;22.28;44.63;98993.97;5087472;28;20558;-70
2023/08/07 11:38:42;;;;;;;1.30;0.80;;;;;;;22.26;41.71;99001.13;5084043;28;20193;-70
2023/08/07 11:41:11;;;;;;;1.45;0.70;;;;;;;21.91;42.28;99001.97;5088823;28;20735;-68